createdAt,value
2022-08-20T00:04:39.420Z,63.90
2022-08-20T00:09:43.222Z,64.17
2022-08-20T00:14:45.519Z,64.55
2022-08-20T00:19:47.607Z,64.00
2022-08-20T00:24:49.559Z,64.15
2022-08-20T00:29:51.649Z,64.46
2022-08-20T00:34:53.650Z,64.47
2022-08-20T00:39:56.189Z,64.69
2022-08-20T00:44:58.366Z,64.80
2022-08-20T00:50:00.390Z,65.20
2022-08-20T00:55:05.110Z,64.92
2022-08-20T01:00:18.571Z,64.90
2022-08-20T01:05:29.406Z,64.91
2022-08-20T01:10:36.647Z,64.89
2022-08-20T01:15:43.357Z,65.44
2022-08-20T01:20:55.315Z,65.25
2022-08-20T01:31:11.045Z,65.64
2022-08-20T01:36:15.362Z,65.76
2022-08-20T01:41:52.053Z,65.85
2022-08-20T01:46:57.958Z,65.66
2022-08-20T01:52:05.833Z,65.60
2022-08-20T01:57:15.809Z,65.58
2022-08-20T02:02:17.817Z,65.51
2022-08-20T02:07:22.375Z,65.55
2022-08-20T02:12:24.634Z,65.19
2022-08-20T02:17:27.194Z,65.10
2022-08-20T02:22:32.285Z,64.79
2022-08-20T02:27:35.262Z,64.64
2022-08-20T02:32:41.099Z,64.21
2022-08-20T02:37:45.368Z,64.11
2022-08-20T02:42:47.865Z,63.72
2022-08-20T02:47:54.606Z,63.64
2022-08-20T02:52:56.743Z,63.73
2022-08-20T02:58:00.644Z,62.92
2022-08-20T03:03:03.077Z,63.14
2022-08-20T03:08:07.507Z,62.67
2022-08-20T03:13:13.744Z,62.79
2022-08-20T03:18:17.055Z,62.52
2022-08-20T03:23:21.590Z,62.30
2022-08-20T03:28:23.989Z,61.46
2022-08-20T03:33:27.446Z,61.85
2022-08-20T03:38:32.805Z,61.58
2022-08-20T03:43:37.515Z,61.95
2022-08-20T03:48:40.025Z,62.01
2022-08-20T03:53:42.046Z,61.86
2022-08-20T03:58:44.214Z,61.74
2022-08-20T04:03:48.511Z,61.71
2022-08-20T04:08:53.980Z,61.27
2022-08-20T04:13:56.180Z,61.79
2022-08-20T04:19:02.304Z,61.52
2022-08-20T04:24:06.153Z,61.97
2022-08-20T04:29:08.731Z,62.59
2022-08-20T04:34:10.706Z,62.30
2022-08-20T04:39:12.975Z,63.06
2022-08-20T04:44:15.098Z,62.52
2022-08-20T04:49:17.270Z,62.51
2022-08-20T04:54:19.297Z,61.65
2022-08-20T04:59:21.409Z,61.85
2022-08-20T05:04:27.698Z,61.82
2022-08-20T05:09:29.912Z,61.66
2022-08-20T05:14:47.258Z,62.17
2022-08-20T05:19:49.219Z,62.09
2022-08-20T05:24:51.872Z,61.80
2022-08-20T05:30:07.908Z,61.85
2022-08-20T05:35:12.463Z,62.28
2022-08-20T05:40:15.238Z,61.63
2022-08-20T05:45:18.005Z,61.88
2022-08-20T05:50:23.521Z,62.37
2022-08-20T05:55:25.622Z,62.03
2022-08-20T06:00:29.510Z,61.49
2022-08-20T06:05:31.578Z,61.02
2022-08-20T06:10:34.033Z,60.81
2022-08-20T06:15:36.320Z,60.77
2022-08-20T06:20:39.725Z,60.62
2022-08-20T06:25:41.750Z,61.34
2022-08-20T06:30:43.871Z,61.86
2022-08-20T06:35:45.922Z,62.11
2022-08-20T06:40:47.978Z,62.46
2022-08-20T06:45:49.998Z,61.00
2022-08-20T06:50:56.073Z,61.32
2022-08-20T06:55:59.608Z,62.85
2022-08-20T07:01:08.709Z,62.43
2022-08-20T07:06:12.054Z,62.03
2022-08-20T07:11:14.197Z,59.68
2022-08-20T07:16:16.708Z,59.80
2022-08-20T07:21:18.681Z,58.67
2022-08-20T07:26:20.984Z,60.65
2022-08-20T07:31:42.274Z,62.79
2022-08-20T07:36:44.397Z,62.36
2022-08-20T07:42:03.061Z,61.64
2022-08-20T07:47:05.793Z,62.47
2022-08-20T07:52:07.842Z,62.71
2022-08-20T07:57:12.174Z,62.37
2022-08-20T08:02:14.318Z,62.50
2022-08-20T08:07:16.949Z,61.44
2022-08-20T08:12:19.013Z,64.75
2022-08-20T08:17:21.455Z,62.75
2022-08-20T08:22:24.008Z,65.70
2022-08-20T08:27:26.198Z,64.24
2022-08-20T08:32:28.915Z,63.60
2022-08-20T08:37:31.146Z,64.53
2022-08-20T08:42:44.118Z,64.00
2022-08-20T08:47:46.220Z,63.00
2022-08-20T08:52:52.243Z,61.96
2022-08-20T08:57:59.223Z,63.58
2022-08-20T09:03:11.047Z,62.95
2022-08-20T09:08:17.290Z,62.81
2022-08-20T09:13:19.469Z,62.71
2022-08-20T09:18:21.445Z,63.71
2022-08-20T09:23:23.422Z,61.99
2022-08-20T09:28:32.288Z,61.95
2022-08-20T09:33:34.698Z,64.15
2022-08-20T09:38:36.738Z,61.88
2022-08-20T09:43:38.954Z,63.01
2022-08-20T09:48:40.955Z,64.76
2022-08-20T09:53:43.644Z,61.73
2022-08-20T09:58:52.250Z,64.58
2022-08-20T10:03:54.309Z,62.81
2022-08-20T10:08:56.301Z,62.55
2022-08-20T10:13:58.560Z,62.69
2022-08-20T10:19:00.800Z,62.44
2022-08-20T10:24:03.023Z,61.46
2022-08-20T10:29:05.064Z,62.50
2022-08-20T10:34:07.109Z,63.32
2022-08-20T10:39:09.530Z,62.50
2022-08-20T10:44:11.569Z,61.84
2022-08-20T10:49:13.728Z,63.47
2022-08-20T10:54:15.930Z,63.54
2022-08-20T10:59:18.000Z,62.95
2022-08-20T11:04:20.231Z,63.98
2022-08-20T11:09:22.221Z,63.83
2022-08-20T11:14:24.198Z,60.03
2022-08-20T11:19:26.338Z,62.00
2022-08-20T11:24:28.274Z,62.08
2022-08-20T11:29:33.902Z,61.67
2022-08-20T11:34:36.146Z,61.27
2022-08-20T11:39:41.710Z,58.18
2022-08-20T11:44:44.231Z,59.82
2022-08-20T11:49:46.302Z,59.04
2022-08-20T11:54:50.836Z,60.64
2022-08-20T11:59:58.036Z,60.24
2022-08-20T12:05:00.028Z,59.87
2022-08-20T12:10:02.273Z,58.34
2022-08-20T12:15:04.747Z,58.90
2022-08-20T12:20:13.270Z,62.18
2022-08-20T12:25:15.533Z,62.23
2022-08-20T12:30:21.773Z,61.37
2022-08-20T12:35:24.050Z,61.13
2022-08-20T12:40:32.309Z,62.40
2022-08-20T12:45:36.314Z,63.31
2022-08-20T12:50:41.067Z,62.56
2022-08-20T12:55:43.026Z,63.89
2022-08-20T13:00:50.394Z,63.16
2022-08-20T13:05:53.498Z,63.29
2022-08-20T13:10:55.453Z,61.91
2022-08-20T13:15:57.436Z,64.46
2022-08-20T13:20:59.429Z,60.78
2022-08-20T13:26:01.490Z,62.73
2022-08-20T13:31:03.474Z,63.79
2022-08-20T13:36:06.039Z,63.76
2022-08-20T13:41:08.009Z,63.14
2022-08-20T13:46:10.025Z,64.56
2022-08-20T13:51:12.151Z,64.04
2022-08-20T13:56:14.138Z,64.63
2022-08-20T14:01:16.363Z,62.87
2022-08-20T14:06:18.394Z,64.97
2022-08-20T14:11:20.726Z,63.72
2022-08-20T14:16:27.340Z,63.68
2022-08-20T14:21:29.727Z,61.04
2022-08-20T14:26:31.793Z,61.76
2022-08-20T14:31:33.870Z,63.11
2022-08-20T14:36:35.966Z,65.00
2022-08-20T14:41:38.084Z,64.87
2022-08-20T14:46:40.016Z,63.95
2022-08-20T14:51:42.444Z,63.72
2022-08-20T14:56:44.525Z,63.71
2022-08-20T15:01:46.494Z,63.20
2022-08-20T15:06:48.881Z,63.24
2022-08-20T15:11:51.137Z,63.19
2022-08-20T15:16:54.497Z,63.37
2022-08-20T15:21:56.588Z,65.27
2022-08-20T15:26:58.623Z,64.99
2022-08-20T15:32:00.867Z,63.40
2022-08-20T15:37:12.168Z,61.45
2022-08-20T15:42:14.815Z,61.49
2022-08-20T15:47:16.787Z,60.48
2022-08-20T15:52:19.199Z,62.26
2022-08-20T15:57:37.161Z,63.22
2022-08-20T16:02:58.795Z,62.75
2022-08-20T16:08:28.333Z,61.79
2022-08-20T16:13:50.209Z,62.83
2022-08-20T16:18:53.914Z,62.78
2022-08-20T16:23:56.463Z,61.92
2022-08-20T16:29:12.017Z,60.97
2022-08-20T16:34:38.850Z,58.97
2022-08-20T16:40:28.430Z,60.27
2022-08-20T16:45:37.221Z,60.29
2022-08-20T16:51:08.944Z,59.07
2022-08-20T16:56:11.018Z,58.69
2022-08-20T17:01:15.197Z,57.76
2022-08-20T17:06:28.620Z,58.22
2022-08-20T17:11:33.248Z,57.69
2022-08-20T17:16:49.830Z,57.42
2022-08-20T17:21:51.627Z,57.98
2022-08-20T17:27:10.335Z,57.36
2022-08-20T17:32:23.723Z,59.55
2022-08-20T17:37:33.580Z,59.39
2022-08-20T17:42:56.979Z,59.72
2022-08-20T17:48:00.985Z,61.93
2022-08-20T17:53:14.380Z,60.53
2022-08-20T17:58:18.801Z,59.38
2022-08-20T18:03:24.980Z,59.59
2022-08-20T18:08:30.893Z,60.08
2022-08-20T18:13:48.518Z,60.87
2022-08-20T18:19:03.285Z,60.49
2022-08-20T18:24:11.141Z,59.05
2022-08-20T18:29:19.506Z,58.81
2022-08-20T18:34:35.844Z,56.00
2022-08-20T18:39:41.438Z,57.24
2022-08-20T18:44:47.662Z,56.20
2022-08-20T18:50:16.764Z,56.60
2022-08-20T18:55:42.079Z,56.44
2022-08-20T19:00:47.099Z,56.34
2022-08-20T19:06:10.402Z,57.39
2022-08-20T19:11:12.542Z,57.02
2022-08-20T19:16:43.591Z,56.18
2022-08-20T19:21:46.202Z,55.91
2022-08-20T19:26:56.730Z,56.06
2022-08-20T19:32:01.636Z,55.81
2022-08-20T19:37:09.041Z,55.42
2022-08-20T19:42:32.017Z,55.06
2022-08-20T19:47:38.423Z,55.20
2022-08-20T19:53:05.689Z,55.69
2022-08-20T19:58:16.908Z,55.54
2022-08-20T20:03:33.910Z,55.96
2022-08-20T20:08:44.225Z,56.26
2022-08-20T20:13:46.766Z,56.57
2022-08-20T20:18:59.072Z,56.68
2022-08-20T20:24:19.951Z,56.79
2022-08-20T20:29:27.027Z,56.87
2022-08-20T20:34:35.539Z,56.56
2022-08-20T20:39:44.546Z,56.90
2022-08-20T20:44:46.605Z,56.63
2022-08-20T20:49:56.014Z,56.95
2022-08-20T20:55:22.901Z,56.93
2022-08-20T21:00:28.846Z,57.18
2022-08-20T21:05:30.867Z,57.12
2022-08-20T21:10:37.092Z,57.67
2022-08-20T21:15:39.749Z,57.76
2022-08-20T21:20:41.713Z,58.07
2022-08-20T21:25:43.818Z,58.19
2022-08-20T21:30:45.862Z,58.36
2022-08-20T21:35:48.444Z,58.58
2022-08-20T21:40:50.641Z,58.37
2022-08-20T21:45:52.696Z,58.40
2022-08-20T21:50:54.793Z,58.32
2022-08-20T21:55:56.964Z,58.22
2022-08-20T22:01:05.234Z,58.49
2022-08-20T22:06:09.097Z,59.05
2022-08-20T22:11:11.966Z,59.08
2022-08-20T22:16:18.513Z,59.47
2022-08-20T22:21:28.034Z,59.68
2022-08-20T22:26:31.826Z,59.04
2022-08-20T22:31:36.671Z,59.59
2022-08-20T22:36:39.741Z,59.71
2022-08-20T22:41:41.910Z,59.53
2022-08-20T22:46:48.226Z,59.54
2022-08-20T22:51:52.818Z,60.05
2022-08-20T22:56:55.596Z,59.80
2022-08-20T23:01:57.929Z,59.70
2022-08-20T23:07:01.421Z,60.25
2022-08-20T23:12:03.807Z,60.40
2022-08-20T23:17:13.083Z,60.72
2022-08-20T23:22:16.496Z,60.96
2022-08-20T23:27:21.091Z,60.94
2022-08-20T23:32:23.699Z,60.92
2022-08-20T23:37:25.918Z,61.32
2022-08-20T23:42:27.863Z,62.00
2022-08-20T23:47:29.889Z,61.70
2022-08-20T23:52:32.314Z,62.03
2022-08-20T23:57:34.329Z,62.16
